Time;durP1;ratioP1;P1;durP2;ratioP2;P2;SDS_P1;SDS_P2;PMS_P1;PMS_P2;Temp;Humidity;BMP_temperature;BMP_pressure;BME280_temperature;BME280_humidity;BME280_pressure;Samples;Min_cycle;Max_cycle;Signal;HPM_P1;HPM_P2
2023/07/08 00:04:03;;;;;;;9.48;3.72;;;;;;;;;;20923815;28;20045;-64
2023/07/08 00:14:04;;;;;;;6.47;3.90;;;;;;;;;;20922870;28;20075;-65
2023/07/08 00:24:05;;;;;;;8.27;3.40;;;;;;;;;;20920607;28;20156;-66
2023/07/08 00:34:07;;;;;;;9.55;4.10;;;;;;;;;;20921642;28;20041;-65
2023/07/08 00:44:10;;;;;;;8.05;3.30;;;;;;;;;;20920834;28;20045;-66
2023/07/08 00:54:12;;;;;;;4.35;2.83;;;;;;;;;;20920264;28;20445;-65
2023/07/08 01:04:15;;;;;;;8.80;2.90;;;;;;;;;;20919221;28;20052;-65
2023/07/08 01:14:18;;;;;;;4.93;2.88;;;;;;;;;;20918459;28;20486;-65
2023/07/08 01:24:19;;;;;;;7.57;3.85;;;;;;;;;;20916873;28;20425;-65
2023/07/08 01:34:21;;;;;;;9.80;4.47;;;;;;;;;;20917097;28;20098;-65
2023/07/08 01:44:24;;;;;;;7.53;3.05;;;;;;;;;;20915114;28;20093;-65
2023/07/08 01:54:25;;;;;;;4.13;2.45;;;;;;;;;;20915138;28;20138;-65
2023/07/08 02:04:30;;;;;;;9.30;2.50;;;;;;;;;;20914749;28;20063;-65
2023/07/08 02:14:31;;;;;;;5.28;2.88;;;;;;;;;;20915572;28;20041;-66
2023/07/08 02:24:32;;;;;;;10.35;3.17;;;;;;;;;;20913194;28;20506;-65
2023/07/08 02:34:33;;;;;;;6.30;2.58;;;;;;;;;;20913666;28;20121;-65
2023/07/08 02:44:34;;;;;;;5.55;2.35;;;;;;;;;;20911849;28;20041;-64
2023/07/08 02:54:35;;;;;;;4.63;2.40;;;;;;;;;;20911589;28;20056;-65
2023/07/08 03:04:39;;;;;;;4.75;1.95;;;;;;;;;;20916364;28;20049;-65
2023/07/08 03:14:40;;;;;;;4.05;2.40;;;;;;;;;;20926699;28;20049;-65
2023/07/08 03:24:45;;;;;;;7.30;2.17;;;;;;;;;;20927687;28;20061;-65
2023/07/08 03:34:46;;;;;;;7.68;4.28;;;;;;;;;;20927418;28;20063;-65
2023/07/08 03:44:47;;;;;;;5.88;2.63;;;;;;;;;;20925543;28;20482;-64
2023/07/08 03:54:49;;;;;;;8.80;3.08;;;;;;;;;;20925001;28;20049;-65
2023/07/08 04:04:50;;;;;;;5.57;2.45;;;;;;;;;;20924053;28;20048;-66
2023/07/08 04:14:51;;;;;;;3.70;2.25;;;;;;;;;;20922382;28;20052;-65
2023/07/08 04:24:52;;;;;;;6.70;2.58;;;;;;;;;;20921433;28;20055;-65
2023/07/08 04:34:54;;;;;;;8.80;2.65;;;;;;;;;;20921793;28;20056;-65
2023/07/08 04:44:55;;;;;;;8.48;2.67;;;;;;;;;;20920944;28;20044;-65
2023/07/08 04:54:56;;;;;;;6.95;3.25;;;;;;;;;;20920231;28;20088;-65
2023/07/08 05:04:57;;;;;;;4.47;2.15;;;;;;;;;;20919351;28;20047;-65
2023/07/08 05:14:58;;;;;;;5.25;2.10;;;;;;;;;;20917239;28;20114;-65
2023/07/08 05:24:59;;;;;;;6.53;2.17;;;;;;;;;;20917269;28;20060;-65
2023/07/08 05:35:00;;;;;;;3.47;2.05;;;;;;;;;;20917154;28;20128;-64
2023/07/08 05:45:01;;;;;;;4.85;2.22;;;;;;;;;;20914861;28;20044;-69
2023/07/08 05:55:02;;;;;;;5.22;2.60;;;;;;;;;;20915617;28;20410;-69
2023/07/08 06:05:04;;;;;;;7.82;2.30;;;;;;;;;;20912978;28;20044;-69
2023/07/08 06:15:05;;;;;;;8.60;2.65;;;;;;;;;;20913299;28;20063;-70
2023/07/08 06:25:06;;;;;;;3.97;2.35;;;;;;;;;;20913144;28;20107;-68
2023/07/08 06:35:08;;;;;;;4.20;2.40;;;;;;;;;;20912965;28;20045;-69
2023/07/08 06:45:09;;;;;;;6.15;3.17;;;;;;;;;;20928337;28;20600;-68
2023/07/08 06:55:11;;;;;;;4.38;2.13;;;;;;;;;;20928339;28;20045;-69
2023/07/08 07:05:12;;;;;;;5.35;2.00;;;;;;;;;;20927975;28;20040;-70
2023/07/08 07:15:14;;;;;;;5.13;2.45;;;;;;;;;;20927509;28;20057;-69
2023/07/08 07:25:15;;;;;;;4.43;2.10;;;;;;;;;;20925919;28;20091;-69
2023/07/08 07:35:16;;;;;;;3.97;2.08;;;;;;;;;;20926462;28;20041;-69
2023/07/08 07:45:17;;;;;;;6.32;2.35;;;;;;;;;;20925593;28;20041;-69
2023/07/08 07:55:18;;;;;;;5.40;2.50;;;;;;;;;;20924069;28;20505;-70
2023/07/08 08:05:20;;;;;;;5.38;2.05;;;;;;;;;;20923593;28;20565;-69
2023/07/08 08:15:22;;;;;;;7.20;2.10;;;;;;;;;;20923078;28;20052;-70
2023/07/08 08:25:24;;;;;;;5.00;2.10;;;;;;;;;;20921124;28;20233;-70
2023/07/08 08:35:25;;;;;;;4.03;1.92;;;;;;;;;;20920298;28;20049;-70
2023/07/08 08:45:27;;;;;;;7.47;2.13;;;;;;;;;;20920853;28;20044;-70
2023/07/08 08:55:29;;;;;;;3.42;1.50;;;;;;;;;;20920215;28;20041;-70
2023/07/08 09:05:30;;;;;;;3.88;2.10;;;;;;;;;;20917239;28;20124;-70
2023/07/08 09:15:32;;;;;;;4.90;2.10;;;;;;;;;;20918673;28;20048;-71
2023/07/08 09:25:39;;;;;;;4.95;2.13;;;;;;;;;;20916723;28;20395;-68
2023/07/08 09:35:42;;;;;;;5.07;2.17;;;;;;;;;;20915551;28;20055;-69
2023/07/08 09:45:45;;;;;;;5.38;2.63;;;;;;;;;;20916186;28;20114;-69
2023/07/08 09:55:47;;;;;;;5.85;2.22;;;;;;;;;;20914403;28;20053;-69
2023/07/08 10:05:49;;;;;;;4.80;2.20;;;;;;;;;;20913471;28;20043;-69
2023/07/08 10:15:53;;;;;;;5.03;2.05;;;;;;;;;;20913136;28;20045;-69
2023/07/08 10:25:59;;;;;;;6.93;2.40;;;;;;;;;;20912367;28;20049;-70
2023/07/08 10:36:04;;;;;;;4.20;2.05;;;;;;;;;;20911104;28;20045;-69
2023/07/08 10:46:05;;;;;;;4.60;2.45;;;;;;;;;;20912882;28;20486;-68
2023/07/08 10:56:18;;;;;;;3.97;2.08;;;;;;;;;;20912545;28;20133;-70
2023/07/08 11:06:35;;;;;;;6.53;2.15;;;;;;;;;;20912265;28;20600;-69
2023/07/08 11:16:40;;;;;;;4.22;1.60;;;;;;;;;;20912083;28;20098;-70
2023/07/08 11:26:44;;;;;;;8.07;2.80;;;;;;;;;;20916005;28;20060;-69
2023/07/08 11:36:47;;;;;;;4.22;2.40;;;;;;;;;;20924575;28;20045;-70
2023/07/08 11:46:55;;;;;;;6.35;2.00;;;;;;;;;;20925020;28;20488;-70
2023/07/08 11:56:57;;;;;;;4.25;2.28;;;;;;;;;;20924385;28;20053;-70
2023/07/08 12:07:19;;;;;;;3.25;2.10;;;;;;;;;;20921403;28;20044;-70
2023/07/08 12:17:20;;;;;;;6.15;2.13;;;;;;;;;;20921643;28;20047;-70
2023/07/08 12:27:22;;;;;;;4.90;2.33;;;;;;;;;;20921016;28;20111;-70
2023/07/08 12:37:23;;;;;;;4.05;1.88;;;;;;;;;;20921346;28;20037;-71
2023/07/08 12:47:24;;;;;;;5.55;2.08;;;;;;;;;;20919588;28;20087;-70
2023/07/08 12:57:26;;;;;;;4.05;1.85;;;;;;;;;;20918922;28;20059;-71
2023/07/08 13:07:30;;;;;;;4.63;2.10;;;;;;;;;;20919402;28;20052;-70
2023/07/08 13:17:31;;;;;;;4.90;2.10;;;;;;;;;;20918478;28;20044;-70
2023/07/08 13:27:33;;;;;;;5.07;2.20;;;;;;;;;;20916937;28;20049;-69
2023/07/08 13:37:34;;;;;;;3.83;1.67;;;;;;;;;;20917045;28;20049;-70
2023/07/08 13:47:35;;;;;;;3.92;1.75;;;;;;;;;;20915319;28;20462;-70
2023/07/08 13:57:39;;;;;;;5.57;2.42;;;;;;;;;;20916283;28;20509;-70
2023/07/08 14:07:41;;;;;;;3.70;2.33;;;;;;;;;;20915483;28;20048;-70
2023/07/08 14:17:42;;;;;;;3.45;1.92;;;;;;;;;;20914731;28;20127;-70
2023/07/08 14:27:43;;;;;;;5.55;2.25;;;;;;;;;;20912628;28;20179;-69
2023/07/08 14:37:45;;;;;;;5.25;2.22;;;;;;;;;;20913967;28;20122;-69
2023/07/08 14:47:46;;;;;;;4.20;2.08;;;;;;;;;;20911632;28;20045;-70
2023/07/08 14:57:48;;;;;;;5.82;1.88;;;;;;;;;;20914500;28;20526;-70
2023/07/08 15:07:53;;;;;;;3.92;1.90;;;;;;;;;;20928816;28;20045;-69
2023/07/08 15:17:54;;;;;;;4.82;2.00;;;;;;;;;;20926682;28;20082;-69
2023/07/08 15:27:57;;;;;;;5.28;1.92;;;;;;;;;;20927794;28;20049;-70
2023/07/08 15:37:59;;;;;;;13.63;6.88;;;;;;;;;;20926683;28;20053;-69
2023/07/08 15:48:00;;;;;;;7.50;2.63;;;;;;;;;;20925706;28;20041;-71
2023/07/08 15:58:12;;;;;;;4.60;1.63;;;;;;;;;;20924800;28;20049;-70
2023/07/08 16:08:13;;;;;;;6.00;2.22;;;;;;;;;;20923337;28;20045;-70
2023/07/08 16:18:15;;;;;;;5.63;1.73;;;;;;;;;;20921572;28;20486;-70
2023/07/08 16:28:39;;;;;;;3.50;1.88;;;;;;;;;;20920467;28;20527;-70
2023/07/08 16:38:41;;;;;;;4.57;2.15;;;;;;;;;;20921486;28;20076;-71
2023/07/08 16:48:45;;;;;;;4.22;1.77;;;;;;;;;;20918480;28;20129;-70
2023/07/08 16:58:46;;;;;;;6.87;2.00;;;;;;;;;;20919329;28;20053;-69
2023/07/08 17:08:47;;;;;;;6.13;2.30;;;;;;;;;;20918932;28;20056;-69
2023/07/08 17:18:51;;;;;;;3.30;1.85;;;;;;;;;;20918931;28;20041;-69
2023/07/08 17:28:52;;;;;;;5.18;2.22;;;;;;;;;;20915168;28;20514;-69
2023/07/08 17:38:53;;;;;;;4.13;1.98;;;;;;;;;;20915561;28;20049;-70
2023/07/08 17:48:55;;;;;;;3.15;2.00;;;;;;;;;;20914779;28;20045;-70
2023/07/08 17:58:56;;;;;;;5.00;2.20;;;;;;;;;;20915582;28;20479;-69
2023/07/08 18:08:57;;;;;;;5.30;2.13;;;;;;;;;;20912675;28;20048;-69
2023/07/08 18:18:58;;;;;;;11.15;7.57;;;;;;;;;;20913675;28;20052;-69
2023/07/08 18:29:01;;;;;;;4.93;2.10;;;;;;;;;;20914580;28;20540;-69
2023/07/08 18:39:02;;;;;;;3.95;1.92;;;;;;;;;;20912732;28;20102;-70
2023/07/08 18:49:04;;;;;;;4.22;2.28;;;;;;;;;;20912723;28;20052;-69
2023/07/08 18:59:05;;;;;;;4.13;2.08;;;;;;;;;;20912460;28;20049;-70
2023/07/08 19:09:06;;;;;;;6.15;2.30;;;;;;;;;;20910585;28;20502;-69
2023/07/08 19:19:07;;;;;;;4.10;2.38;;;;;;;;;;20909853;28;20094;-69
2023/07/08 19:29:09;;;;;;;5.65;2.35;;;;;;;;;;20909460;28;20088;-69
2023/07/08 19:39:10;;;;;;;5.53;2.78;;;;;;;;;;20909878;28;20064;-71
2023/07/08 19:49:11;;;;;;;9.27;6.25;;;;;;;;;;20917207;28;20502;-70
2023/07/08 19:59:15;;;;;;;9.48;2.90;;;;;;;;;;20922942;28;20115;-71
2023/07/08 20:09:16;;;;;;;8.18;4.05;;;;;;;;;;20923001;28;20095;-71
2023/07/08 20:19:25;;;;;;;5.93;3.08;;;;;;;;;;20922558;28;20041;-70
2023/07/08 20:29:27;;;;;;;5.63;2.75;;;;;;;;;;20921048;28;20120;-69
2023/07/08 20:39:28;;;;;;;7.32;3.03;;;;;;;;;;20920906;28;20045;-71
2023/07/08 20:49:29;;;;;;;7.85;3.20;;;;;;;;;;20918635;28;20044;-71
2023/07/08 20:59:31;;;;;;;5.10;3.17;;;;;;;;;;20918619;28;20049;-70
2023/07/08 21:09:32;;;;;;;8.25;3.90;;;;;;;;;;20918366;28;20409;-69
2023/07/08 21:19:33;;;;;;;7.63;3.25;;;;;;;;;;20917462;28;20447;-70
2023/07/08 21:29:35;;;;;;;6.00;2.92;;;;;;;;;;20917596;28;20124;-70
2023/07/08 21:39:36;;;;;;;5.85;3.03;;;;;;;;;;20916318;28;20044;-71
2023/07/08 21:49:37;;;;;;;5.20;2.75;;;;;;;;;;20915141;28;20079;-70
2023/07/08 21:59:39;;;;;;;6.18;2.33;;;;;;;;;;20915560;28;20045;-69
2023/07/08 22:09:40;;;;;;;7.35;4.18;;;;;;;;;;20914430;28;20037;-70
2023/07/08 22:19:41;;;;;;;9.45;2.88;;;;;;;;;;20913953;28;20041;-70
2023/07/08 22:29:42;;;;;;;8.98;3.30;;;;;;;;;;20914670;28;20403;-69
2023/07/08 22:39:43;;;;;;;14.00;8.80;;;;;;;;;;20913546;28;20406;-70
2023/07/08 22:49:44;;;;;;;7.60;3.22;;;;;;;;;;20913323;28;20127;-70
2023/07/08 22:59:45;;;;;;;7.13;4.22;;;;;;;;;;20912822;28;20080;-70
2023/07/08 23:09:47;;;;;;;5.40;3.03;;;;;;;;;;20911132;28;20037;-69
2023/07/08 23:19:48;;;;;;;6.80;3.15;;;;;;;;;;20912763;28;20056;-70
2023/07/08 23:29:49;;;;;;;10.07;3.20;;;;;;;;;;20926024;28;20056;-70
2023/07/08 23:39:50;;;;;;;11.05;6.93;;;;;;;;;;20926745;28;20048;-70
2023/07/08 23:49:51;;;;;;;7.20;3.90;;;;;;;;;;20924623;28;20041;-70
2023/07/08 23:59:56;;;;;;;8.20;3.40;;;;;;;;;;20923881;28;20049;-70
